createdAt,value
2022-09-22T03:55:09.288Z,101476.98
2022-09-22T03:58:32.059Z,101476.46
2022-09-22T04:01:58.481Z,101474.05
2022-09-22T04:05:21.251Z,101475.84
2022-09-22T04:08:43.738Z,101476.34
2022-09-22T04:12:09.627Z,101473.58
2022-09-22T04:15:33.227Z,101468.66
2022-09-22T04:19:09.993Z,101470.23
2022-09-22T04:22:32.702Z,101467.81
2022-09-22T04:25:55.457Z,101466.34
2022-09-22T04:29:18.142Z,101461.84
2022-09-22T04:32:40.754Z,101463.67
2022-09-22T04:36:23.414Z,101466.01
2022-09-22T04:39:46.229Z,101465.59
2022-09-22T04:43:09.802Z,101467.86
2022-09-22T04:46:36.001Z,101466.96
2022-09-22T04:49:59.229Z,101466.52
2022-09-22T04:53:21.869Z,101470.13
2022-09-22T04:56:44.992Z,101471.86
2022-09-22T05:00:09.331Z,101469.40
2022-09-22T05:03:32.423Z,101472.62
2022-09-22T05:06:55.116Z,101474.70
2022-09-22T05:10:17.906Z,101477.66
2022-09-22T05:13:42.625Z,101477.56
2022-09-22T05:17:06.080Z,101477.85
2022-09-22T05:20:31.433Z,101476.48
2022-09-22T05:23:55.539Z,101474.64
2022-09-22T05:27:18.104Z,101474.61
2022-09-22T05:30:44.014Z,101479.44
2022-09-22T05:34:08.990Z,101482.75
2022-09-22T05:37:37.058Z,101489.58
2022-09-22T05:41:03.334Z,101487.70
2022-09-22T05:44:26.189Z,101489.70
2022-09-22T05:47:48.962Z,101481.58
2022-09-22T05:51:11.741Z,101481.83
2022-09-22T05:54:34.461Z,101478.89
2022-09-22T05:57:57.767Z,101479.08
2022-09-22T06:01:20.336Z,101475.70
2022-09-22T06:04:43.006Z,101479.20
2022-09-22T06:08:06.028Z,101484.65
2022-09-22T06:11:28.596Z,101488.83
2022-09-22T06:14:51.587Z,101487.67
2022-09-22T06:18:15.441Z,101487.35
2022-09-22T06:21:38.622Z,101485.75
2022-09-22T06:25:01.694Z,101486.32
2022-09-22T06:28:29.359Z,101493.08
2022-09-22T06:32:01.295Z,101493.77
2022-09-22T06:35:24.142Z,101497.85
2022-09-22T06:38:46.533Z,101495.56
2022-09-22T06:42:10.371Z,101500.95
2022-09-22T06:45:34.280Z,101503.36
2022-09-22T06:48:57.590Z,101503.67
2022-09-22T06:52:21.057Z,101503.89
2022-09-22T06:55:44.070Z,101505.06
2022-09-22T06:59:10.672Z,101501.45
2022-09-22T07:02:35.562Z,101500.29
2022-09-22T07:06:00.430Z,101496.40
2022-09-22T07:09:23.104Z,101497.33
2022-09-22T07:12:46.326Z,101492.56
2022-09-22T07:16:09.942Z,101494.52
2022-09-22T07:19:35.854Z,101495.29
2022-09-22T07:22:59.984Z,101492.64
2022-09-22T07:26:25.821Z,101493.38
2022-09-22T07:29:48.760Z,101492.44
2022-09-22T07:33:11.482Z,101488.94
2022-09-22T07:36:36.372Z,101491.01
2022-09-22T07:40:00.258Z,101491.60
2022-09-22T07:43:23.091Z,101492.62
2022-09-22T07:46:45.936Z,101497.98
2022-09-22T07:50:09.188Z,101495.77
2022-09-22T07:53:32.393Z,101492.34
2022-09-22T07:56:57.597Z,101491.79
2022-09-22T08:00:20.236Z,101491.63
2022-09-22T08:03:43.512Z,101492.51
2022-09-22T08:07:05.944Z,101492.54
2022-09-22T08:10:28.554Z,101490.04
2022-09-22T08:13:52.889Z,101488.52
2022-09-22T08:17:15.393Z,101491.64
2022-09-22T08:20:44.912Z,101497.41
2022-09-22T08:24:09.146Z,101494.84
2022-09-22T08:27:32.875Z,101494.02
2022-09-22T08:30:55.436Z,101497.29
2022-09-22T08:34:18.278Z,101496.27
2022-09-22T08:37:43.167Z,101499.20
2022-09-22T08:41:12.559Z,101495.97
2022-09-22T08:44:37.602Z,101491.70
2022-09-22T08:48:21.729Z,101498.27
2022-09-22T08:51:55.109Z,101497.10
2022-09-22T08:55:20.866Z,101492.02
2022-09-22T08:58:48.330Z,101486.45
2022-09-22T09:02:36.998Z,101481.67
2022-09-22T09:06:05.337Z,101483.60
2022-09-22T09:09:36.067Z,101487.61
2022-09-22T09:13:08.897Z,101486.48
2022-09-22T09:16:41.506Z,101488.23
2022-09-22T09:20:12.223Z,101482.16
2022-09-22T09:27:25.158Z,101476.45
2022-09-22T09:30:50.595Z,101478.81
2022-09-22T09:34:16.208Z,101481.25
2022-09-22T09:37:39.212Z,101471.36
2022-09-22T09:41:11.263Z,101463.86
2022-09-22T09:44:39.392Z,101461.86
2022-09-22T09:48:06.919Z,101459.34
2022-09-22T09:51:29.608Z,101461.27
2022-09-22T09:55:00.510Z,101463.21
2022-09-22T09:58:41.783Z,101460.66
2022-09-22T10:02:04.363Z,101456.05
2022-09-22T10:05:26.974Z,101455.29
2022-09-22T10:08:50.853Z,101453.03
2022-09-22T10:12:24.625Z,101449.56
2022-09-22T10:15:59.630Z,101448.13
2022-09-22T10:19:25.399Z,101446.09
2022-09-22T10:22:47.859Z,101449.40
2022-09-22T10:26:15.015Z,101450.41
2022-09-22T10:29:41.578Z,101448.86
2022-09-22T10:33:05.722Z,101449.11
2022-09-22T10:36:32.623Z,101445.92
2022-09-22T10:39:58.613Z,101444.89
2022-09-22T10:43:30.656Z,101444.45
2022-09-22T10:47:05.593Z,101440.10
2022-09-22T10:50:35.999Z,101437.09
2022-09-22T10:54:09.230Z,101438.73
2022-09-22T10:57:40.355Z,101434.70
2022-09-22T11:01:30.911Z,101431.55
2022-09-22T11:04:58.660Z,101429.67
2022-09-22T11:08:40.424Z,101435.79
2022-09-22T11:12:27.506Z,101431.60
2022-09-22T11:16:04.231Z,101430.41
2022-09-22T11:19:36.764Z,101427.84
2022-09-22T11:23:17.115Z,101425.81
2022-09-22T11:26:45.698Z,101429.33
2022-09-22T11:30:16.169Z,101425.70
2022-09-22T11:33:51.242Z,101421.85
2022-09-22T11:37:26.234Z,101422.71
2022-09-22T11:41:01.168Z,101422.44
2022-09-22T11:44:36.203Z,101424.23
2022-09-22T11:48:08.498Z,101422.67
2022-09-22T11:51:44.985Z,101420.77
2022-09-22T11:55:14.499Z,101417.76
2022-09-22T11:58:40.421Z,101416.85
2022-09-22T12:02:08.563Z,101417.29
2022-09-22T12:05:34.541Z,101411.02
2022-09-22T12:08:59.799Z,101406.51
2022-09-22T12:12:23.887Z,101403.56
2022-09-22T12:15:52.310Z,101402.88
2022-09-22T12:19:20.700Z,101401.71
2022-09-22T12:22:57.781Z,101401.10
2022-09-22T12:26:26.767Z,101397.45
2022-09-22T12:30:00.320Z,101391.35
2022-09-22T12:33:23.309Z,101394.69
2022-09-22T12:36:47.151Z,101389.55
2022-09-22T12:40:22.897Z,101382.33
2022-09-22T12:43:46.804Z,101390.65
2022-09-22T12:47:19.153Z,101386.61
2022-09-22T12:50:42.384Z,101383.85
2022-09-22T12:54:19.102Z,101381.64
2022-09-22T12:57:45.188Z,101382.96
2022-09-22T13:01:28.487Z,101385.29
2022-09-22T13:05:08.907Z,101384.23
2022-09-22T13:08:45.507Z,101380.20
2022-09-22T13:12:22.637Z,101383.91
2022-09-22T13:16:02.290Z,101377.90
2022-09-22T13:19:24.788Z,101377.16
2022-09-22T13:22:47.492Z,101370.78
2022-09-22T13:26:12.365Z,101373.08
2022-09-22T13:29:35.827Z,101371.98
2022-09-22T13:32:58.691Z,101370.13
2022-09-22T13:36:23.091Z,101367.92
2022-09-22T13:39:47.883Z,101368.09
2022-09-22T13:43:11.675Z,101367.58
2022-09-22T13:46:36.505Z,101365.50
2022-09-22T13:50:03.101Z,101365.70
2022-09-22T13:53:26.171Z,101366.14
2022-09-22T13:56:48.963Z,101361.38
2022-09-22T14:00:19.264Z,101365.39
2022-09-22T14:03:42.576Z,101362.72
2022-09-22T14:07:09.292Z,101364.86
2022-09-22T14:10:32.333Z,101356.13
2022-09-22T14:13:59.154Z,101357.30
2022-09-22T14:17:23.877Z,101355.89
2022-09-22T14:20:46.718Z,101356.54
2022-09-22T14:24:12.389Z,101355.05
2022-09-22T14:27:35.999Z,101357.30
2022-09-22T14:30:58.802Z,101357.29
2022-09-22T14:34:26.481Z,101356.71
2022-09-22T14:37:51.165Z,101361.80
2022-09-22T14:41:21.345Z,101353.98
2022-09-22T14:44:45.078Z,101355.42
2022-09-22T14:48:16.483Z,101350.48
2022-09-22T14:51:45.204Z,101346.53
2022-09-22T14:55:15.071Z,101348.04
2022-09-22T14:58:40.576Z,101347.84
2022-09-22T15:02:22.074Z,101344.11
2022-09-22T15:05:45.504Z,101339.86
2022-09-22T15:09:22.392Z,101335.63
2022-09-22T15:12:49.375Z,101328.22
2022-09-22T15:16:30.432Z,101331.40
2022-09-22T15:19:55.589Z,101333.08
2022-09-22T15:23:20.398Z,101332.86
2022-09-22T15:26:43.610Z,101324.15
2022-09-22T15:30:08.360Z,101328.52
2022-09-22T15:33:31.079Z,101324.55
2022-09-22T15:36:55.309Z,101325.02
2022-09-22T15:40:20.559Z,101321.30
2022-09-22T15:43:44.532Z,101329.04
2022-09-22T15:47:15.939Z,101327.44
2022-09-22T15:50:38.732Z,101329.64
2022-09-22T15:54:01.356Z,101330.98
2022-09-22T15:57:24.308Z,101331.97
2022-09-22T16:00:47.071Z,101332.40
2022-09-22T16:04:09.736Z,101331.28
2022-09-22T16:07:36.832Z,101332.45
2022-09-22T16:11:05.052Z,101327.27
2022-09-22T16:14:28.548Z,101327.20
2022-09-22T16:17:51.733Z,101322.05
2022-09-22T16:21:18.418Z,101319.36
2022-09-22T16:24:42.714Z,101317.38
2022-09-22T16:28:05.763Z,101314.55
2022-09-22T16:31:28.357Z,101317.89
2022-09-22T16:34:51.152Z,101318.77
2022-09-22T16:38:13.772Z,101317.17
2022-09-22T16:41:36.382Z,101313.77
2022-09-22T16:44:59.646Z,101310.15
2022-09-22T16:48:22.608Z,101314.65
2022-09-22T16:51:48.161Z,101312.10
2022-09-22T16:55:10.990Z,101313.04
2022-09-22T16:58:33.530Z,101317.44
2022-09-22T17:01:56.363Z,101315.17
2022-09-22T17:05:19.476Z,101318.00
2022-09-22T17:08:43.257Z,101318.84
2022-09-22T17:12:10.342Z,101316.77
2022-09-22T17:15:35.088Z,101315.52
2022-09-22T17:18:59.316Z,101317.73
2022-09-22T17:22:23.565Z,101319.90
2022-09-22T17:25:46.286Z,101318.02
2022-09-22T17:29:10.274Z,101320.71
2022-09-22T17:32:32.691Z,101324.27
2022-09-22T17:35:58.677Z,101316.70
2022-09-22T17:39:21.693Z,101322.36
2022-09-22T17:42:44.140Z,101322.59
2022-09-22T17:46:07.579Z,101329.27
2022-09-22T17:49:48.325Z,101324.02
2022-09-22T17:53:29.441Z,101326.98
2022-09-22T17:56:52.109Z,101322.06
2022-09-22T18:00:15.895Z,101323.86
2022-09-22T18:03:38.337Z,101328.64
2022-09-22T18:07:02.804Z,101326.12
2022-09-22T18:10:31.528Z,101328.02
2022-09-22T18:13:55.696Z,101329.79
2022-09-22T18:17:20.873Z,101336.71
2022-09-22T18:20:46.244Z,101337.42
2022-09-22T18:24:08.909Z,101337.02
2022-09-22T18:27:31.719Z,101342.23
2022-09-22T18:30:54.627Z,101341.50
2022-09-22T18:34:17.294Z,101342.48
2022-09-22T18:37:40.382Z,101343.74
2022-09-22T18:41:03.175Z,101342.05
2022-09-22T18:44:27.524Z,101345.61
2022-09-22T18:47:51.423Z,101346.05
2022-09-22T18:51:17.393Z,101349.54
2022-09-22T18:54:39.864Z,101349.77
2022-09-22T18:58:02.640Z,101349.48
2022-09-22T19:01:25.249Z,101354.02
2022-09-22T19:04:48.015Z,101353.23
2022-09-22T19:08:10.587Z,101350.23
2022-09-22T19:11:34.439Z,101353.23
2022-09-22T19:15:01.325Z,101354.39
2022-09-22T19:18:24.622Z,101353.42
2022-09-22T19:21:49.597Z,101355.20
2022-09-22T19:25:12.322Z,101355.29
2022-09-22T19:28:34.839Z,101357.58
2022-09-22T19:31:57.803Z,101358.86
2022-09-22T19:35:20.682Z,101357.32
2022-09-22T19:38:43.163Z,101356.37
2022-09-22T19:42:06.514Z,101353.36
2022-09-22T19:45:29.855Z,101356.95
2022-09-22T19:48:52.535Z,101358.35
2022-09-22T19:52:15.713Z,101359.02
2022-09-22T19:55:39.147Z,101357.77
2022-09-22T19:59:01.895Z,101361.80
2022-09-22T20:02:24.923Z,101358.73
2022-09-22T20:08:32.378Z,101349.30
2022-09-22T20:12:01.352Z,101348.33
2022-09-22T20:18:53.419Z,101354.62
2022-09-22T20:22:25.326Z,101352.44
2022-09-22T20:25:53.219Z,101349.38
2022-09-22T20:29:20.994Z,101349.23
2022-09-22T20:32:47.996Z,101349.59
2022-09-22T20:36:15.355Z,101350.39
2022-09-22T20:39:43.060Z,101350.65
2022-09-22T20:43:11.960Z,101352.37
2022-09-22T20:46:41.224Z,101355.80
2022-09-22T20:50:11.966Z,101356.71
2022-09-22T20:53:40.544Z,101358.00
2022-09-22T20:57:07.992Z,101357.35
2022-09-22T21:00:35.114Z,101353.59
2022-09-22T21:04:02.629Z,101349.05
2022-09-22T21:07:32.081Z,101347.08
2022-09-22T21:10:58.989Z,101344.95
2022-09-22T21:14:26.323Z,101339.77
2022-09-22T21:17:53.885Z,101342.36
2022-09-22T21:21:22.893Z,101339.11
2022-09-22T21:24:50.086Z,101336.15
2022-09-22T21:28:17.057Z,101335.90
2022-09-22T21:31:43.869Z,101332.48
2022-09-22T21:35:16.620Z,101337.70
2022-09-22T21:38:45.293Z,101341.38
2022-09-22T21:42:12.177Z,101341.91
2022-09-22T21:45:38.934Z,101342.14
2022-09-22T21:49:06.884Z,101339.61
2022-09-22T21:52:33.780Z,101335.65
2022-09-22T21:56:03.875Z,101333.05
2022-09-22T21:59:31.383Z,101332.43
2022-09-22T22:03:15.564Z,101333.27
2022-09-22T22:06:44.599Z,101333.17
2022-09-22T22:10:13.819Z,101333.05
2022-09-22T22:13:42.042Z,101336.98
2022-09-22T22:17:08.904Z,101339.07
2022-09-22T22:20:36.544Z,101342.52
2022-09-22T22:24:19.837Z,101340.40
2022-09-22T22:27:46.945Z,101343.90
2022-09-22T22:31:15.559Z,101345.44
2022-09-22T22:34:43.382Z,101341.80
2022-09-22T22:38:10.397Z,101339.80
2022-09-22T22:41:37.815Z,101335.48
2022-09-22T22:45:05.388Z,101330.94
2022-09-22T22:48:32.553Z,101330.42
